»·PEaware :: N48427 L52-L88

N48427 :: L52-L88

FLIGHT INFORMATION

Flight Status: Arrived
Operator: Privately registered:
United States
More flights under this callsign
Pilot: Simon B. (22905)
Aircraft: Unknown
(P28U)
More flights by this aircraft type
Origin: L52 Oceano Co
United States
Destination: L88 New Cuyama
United States
More flights between these airports :: More routes between these airports
Route:
File this flight plan on PilotEdge
Remarks: CAT1
Altitude:
(Current/Filed)
6,000ft
Speed:
(Current/Filed)
120kts
Departed: 05-Jan-19 02:12 PM
Arrived: 05-Jan-19 02:43 PM
Distance/Time
Traveled:
47nm/0:31
Distance/Time
To Go:
Arrived

Flight Plot

Page will automatically refresh every two minutes.


Map Options




Map Legend


Flown Route
Filed Route
Departure Airport
Arrival Airport
Navaid (VOR, NDB)
Fix

Horizontal Profiles

Position Reports

Time Latitude Longitude Heading Altitude Ground
Speed
05-Jan-19 14:03 35.102274 -120.622530 210 16ft 0kts
05-Jan-19 14:04 35.102274 -120.622530 210 16ft 0kts
05-Jan-19 14:05 35.102274 -120.622530 210 16ft 0kts
05-Jan-19 14:06 35.102274 -120.622530 210 16ft 0kts
05-Jan-19 14:07 35.102117 -120.622372 121 16ft 5kts
05-Jan-19 14:08 35.101877 -120.622159 191 16ft 0kts
05-Jan-19 14:08 35.101045 -120.622281 122 15ft 8kts
05-Jan-19 14:10 35.099557 -120.619366 62 16ft 0kts
05-Jan-19 14:11 35.099990 -120.619337 304 16ft 10kts
05-Jan-19 14:11 35.106232 -120.636346 250 423ft 85kts
05-Jan-19 14:13 35.094257 -120.617289 101 1450ft 86kts
05-Jan-19 14:13 35.088853 -120.592730 102 2123ft 95kts
05-Jan-19 14:14 35.080271 -120.562067 97 2871ft 95kts
05-Jan-19 14:15 35.077393 -120.530116 98 3558ft 96kts
05-Jan-19 14:17 35.069596 -120.492831 96 4357ft 96kts
05-Jan-19 14:17 35.063314 -120.466851 92 4925ft 98kts
05-Jan-19 14:18 35.056902 -120.434359 93 5607ft 98kts
05-Jan-19 14:19 35.055057 -120.400896 92 6175ft 105kts
05-Jan-19 14:20 35.048807 -120.360167 100 6026ft 133kts
05-Jan-19 14:21 35.036645 -120.319098 101 5987ft 131kts
05-Jan-19 14:22 35.028768 -120.276559 96 5974ft 130kts
05-Jan-19 14:23 35.023297 -120.234057 98 6081ft 124kts
05-Jan-19 14:24 35.017350 -120.192574 92 6200ft 122kts
05-Jan-19 14:25 35.008276 -120.149994 102 6145ft 129kts
05-Jan-19 14:26 34.998603 -120.106976 95 6029ft 135kts
05-Jan-19 14:27 34.986153 -120.065537 103 6033ft 131kts
05-Jan-19 14:28 34.978193 -120.023138 104 6084ft 129kts
05-Jan-19 14:29 34.971100 -119.980076 97 6036ft 132kts
05-Jan-19 14:30 34.961698 -119.937783 102 6083ft 130kts
05-Jan-19 14:31 34.952265 -119.894886 101 5768ft 131kts
05-Jan-19 14:32 34.940807 -119.852882 105 4924ft 133kts
05-Jan-19 14:33 34.928555 -119.811459 97 4401ft 127kts
05-Jan-19 14:34 34.920342 -119.769743 122 3903ft 128kts
05-Jan-19 14:35 34.914325 -119.728358 113 3479ft 126kts
05-Jan-19 14:36 34.894909 -119.696831 122 3255ft 106kts
05-Jan-19 14:37 34.878311 -119.669723 126 3258ft 96kts
05-Jan-19 14:38 34.890376 -119.649825 29 3148ft 89kts
05-Jan-19 14:39 34.911632 -119.646350 310 2749ft 92kts
05-Jan-19 14:40 34.929450 -119.667447 333 2534ft 87kts
05-Jan-19 14:41 34.940949 -119.688131 298 2164ft 45kts
05-Jan-19 14:42 34.942760 -119.690861 134 2155ft 7kts
05-Jan-19 14:43 34.942631 -119.690548 10 2156ft 0kts
05-Jan-19 14:44 34.942631 -119.690548 10 2156ft 0kts
05-Jan-19 14:45 34.942631 -119.690548 10 2156ft 0kts
05-Jan-19 14:46 34.942631 -119.690548 10 2156ft 0kts
05-Jan-19 14:47 34.942631 -119.690548 10 2156ft 0kts
05-Jan-19 14:48 34.942631 -119.690548 10 2156ft 0kts
05-Jan-19 14:49 34.942631 -119.690548 10 2156ft 0kts
05-Jan-19 14:50 34.942631 -119.690548 10 2156ft 0kts
05-Jan-19 14:51 34.942631 -119.690548 10 2156ft 0kts
05-Jan-19 14:52 34.942631 -119.690548 10 2156ft 0kts
05-Jan-19 14:53 34.942631 -119.690548 10 2156ft 0kts
05-Jan-19 14:54 34.942631 -119.690548 10 2156ft 0kts
05-Jan-19 14:55 34.942631 -119.690548 10 2156ft 0kts
05-Jan-19 14:56 34.942631 -119.690548 10 2156ft 0kts

Navigation Log

Ident Type
Flight plan parsing failed, navigation log unavailable